Time;durP1;ratioP1;P1;durP2;ratioP2;P2;SDS_P1;SDS_P2;PMS_P1;PMS_P2;Temp;Humidity;BMP_temperature;BMP_pressure;BME280_temperature;BME280_humidity;BME280_pressure;Samples;Min_cycle;Max_cycle;Signal;HPM_P1;HPM_P2
2024/02/13 00:02:41;;;;;;;3.08;1.92;;;;;;;4.38;65.20;99778.00;10226777;28;20051;-61
2024/02/13 00:07:43;;;;;;;6.63;1.60;;;;;;;4.30;65.37;99793.81;10226083;28;20058;-61
2024/02/13 00:12:45;;;;;;;3.05;1.60;;;;;;;4.22;65.62;99803.63;10224942;28;20047;-62
2024/02/13 00:17:47;;;;;;;3.17;1.40;;;;;;;4.23;65.51;99807.88;10225115;28;20047;-62
2024/02/13 00:22:50;;;;;;;2.70;1.50;;;;;;;4.13;65.77;99806.50;10219214;28;20534;-61
2024/02/13 00:27:52;;;;;;;3.08;1.63;;;;;;;4.12;65.53;99816.94;10227060;28;20043;-61
2024/02/13 00:32:54;;;;;;;2.47;1.40;;;;;;;4.08;65.79;99825.69;10226044;28;20758;-61
2024/02/13 00:38:14;;;;;;;4.40;1.55;;;;;;;4.10;65.45;99823.91;10223734;28;20073;-61
2024/02/13 00:43:20;;;;;;;3.55;1.33;;;;;;;4.15;65.38;99834.97;10225132;28;20059;-61
2024/02/13 00:48:22;;;;;;;3.65;1.40;;;;;;;4.14;65.18;99844.47;10224582;28;20063;-61
2024/02/13 00:53:24;;;;;;;1.70;1.30;;;;;;;4.06;65.27;99849.06;10223835;28;20995;-61
2024/02/13 00:58:26;;;;;;;3.47;1.60;;;;;;;4.00;65.29;99853.59;10224983;28;20097;-60
2024/02/13 01:03:29;;;;;;;3.08;1.65;;;;;;;3.90;65.55;99862.56;10224661;28;20487;-61
2024/02/13 01:08:33;;;;;;;3.78;1.52;;;;;;;3.80;65.70;99864.59;10220933;28;20213;-60
2024/02/13 01:13:35;;;;;;;1.98;1.10;;;;;;;3.71;66.11;99862.28;10225138;28;20100;-61
2024/02/13 01:18:37;;;;;;;5.75;1.83;;;;;;;3.69;66.32;99877.88;10224233;28;20169;-61
2024/02/13 01:23:40;;;;;;;7.45;1.63;;;;;;;3.71;65.94;99877.81;10224450;28;20055;-61
2024/02/13 01:28:42;;;;;;;1.67;1.20;;;;;;;3.70;65.96;99876.13;10224494;28;20479;-60
2024/02/13 01:33:44;;;;;;;3.85;1.45;;;;;;;3.63;65.82;99882.38;10225419;28;20057;-60
2024/02/13 01:38:46;;;;;;;2.40;1.17;;;;;;;3.58;65.94;99889.44;10222722;28;20047;-61
2024/02/13 01:43:49;;;;;;;2.45;1.65;;;;;;;3.53;66.11;99883.59;10223371;28;20105;-61
2024/02/13 01:48:56;;;;;;;1.30;0.95;;;;;;;3.50;66.23;99894.00;10223297;28;20100;-60
2024/02/13 01:54:00;;;;;;;3.65;1.50;;;;;;;3.48;66.19;99901.81;10223412;28;20134;-60
2024/02/13 01:59:03;;;;;;;1.17;1.08;;;;;;;3.46;66.42;99910.50;10222976;28;20438;-60
2024/02/13 02:04:09;;;;;;;1.77;1.20;;;;;;;3.48;66.36;99914.75;10219755;28;20051;-60
2024/02/13 02:09:11;;;;;;;2.65;1.35;;;;;;;3.44;66.27;99913.16;10227499;28;20319;-61
2024/02/13 02:14:13;;;;;;;3.90;1.60;;;;;;;3.46;66.30;99920.84;10231454;28;20307;-60
2024/02/13 02:19:32;;;;;;;3.25;1.15;;;;;;;3.31;66.90;99929.09;10227931;28;20388;-60
2024/02/13 02:24:34;;;;;;;1.77;1.17;;;;;;;3.32;66.83;99933.34;10227714;28;20054;-60
2024/02/13 02:29:38;;;;;;;3.20;1.63;;;;;;;3.38;66.56;99933.16;10227554;28;20063;-60
2024/02/13 02:34:41;;;;;;;2.45;1.70;;;;;;;3.40;66.35;99928.78;10228817;28;20096;-60
2024/02/13 02:39:43;;;;;;;2.65;1.17;;;;;;;3.38;66.60;99940.91;10229018;28;20469;-60
2024/02/13 02:44:45;;;;;;;2.40;1.40;;;;;;;3.43;66.17;99949.41;10226956;28;20051;-60
2024/02/13 02:49:46;;;;;;;3.05;1.30;;;;;;;3.43;66.24;99957.16;10228666;28;20055;-60
2024/02/13 02:54:49;;;;;;;2.72;1.15;;;;;;;3.38;66.03;99964.19;10226950;28;20047;-60
2024/02/13 02:59:51;;;;;;;6.88;1.25;;;;;;;3.30;65.91;99959.25;10227953;28;20058;-61
2024/02/13 03:04:53;;;;;;;3.58;1.58;;;;;;;3.16;65.61;99970.88;10226319;28;20473;-60
2024/02/13 03:09:55;;;;;;;1.75;1.02;;;;;;;2.92;65.62;99978.47;10227349;28;20910;-60
2024/02/13 03:14:57;;;;;;;3.55;1.70;;;;;;;2.89;65.79;99983.69;10226357;28;20130;-60
2024/02/13 03:20:00;;;;;;;1.67;1.42;;;;;;;2.79;65.54;99977.09;10229471;28;20043;-60
2024/02/13 03:25:05;;;;;;;1.33;1.00;;;;;;;2.64;65.75;99982.66;10227034;28;20395;-60
2024/02/13 03:30:27;;;;;;;0.98;0.90;;;;;;;2.52;65.78;99997.66;10227497;28;20296;-60
2024/02/13 03:35:30;;;;;;;5.47;1.50;;;;;;;2.58;65.95;99998.31;10227128;28;20048;-60
2024/02/13 03:40:32;;;;;;;1.88;1.30;;;;;;;2.55;66.08;100006.16;10228321;28;20065;-61
2024/02/13 03:45:34;;;;;;;1.92;1.38;;;;;;;2.59;66.46;100012.94;10224838;28;20503;-60
2024/02/13 03:50:45;;;;;;;2.15;1.30;;;;;;;2.58;66.35;100016.38;10226739;28;20056;-60
2024/02/13 03:55:47;;;;;;;2.67;1.77;;;;;;;2.51;65.80;100009.72;10227652;28;20628;-60
2024/02/13 04:00:49;;;;;;;2.60;1.60;;;;;;;2.32;65.71;100016.22;10226145;28;20165;-60
2024/02/13 04:05:51;;;;;;;2.00;1.20;;;;;;;2.27;66.43;100023.22;10226832;28;20134;-60
2024/02/13 04:10:53;;;;;;;2.15;1.27;;;;;;;2.29;66.75;100016.31;10226043;28;20120;-61
2024/02/13 04:15:55;;;;;;;2.65;1.30;;;;;;;2.21;66.94;100033.72;10225702;28;20047;-60
2024/02/13 04:20:58;;;;;;;4.72;1.75;;;;;;;2.19;68.19;100040.63;10224971;29;20043;-60
2024/02/13 04:26:00;;;;;;;2.40;1.73;;;;;;;2.33;67.54;100046.31;10255882;28;20043;-60
2024/02/13 04:31:02;;;;;;;2.95;1.30;;;;;;;2.33;68.23;100054.03;10225593;28;20047;-60
2024/02/13 04:36:04;;;;;;;1.90;1.40;;;;;;;2.41;67.59;100051.28;10224768;28;20065;-60
2024/02/13 04:41:06;;;;;;;5.25;2.33;;;;;;;2.43;67.72;100059.81;10226362;28;20062;-60
2024/02/13 04:46:24;;;;;;;3.50;1.20;;;;;;;2.47;67.46;100061.44;10224656;28;20051;-60
2024/02/13 04:51:27;;;;;;;3.50;1.52;;;;;;;2.50;67.58;100063.97;10221685;28;20039;-60
2024/02/13 04:56:29;;;;;;;3.67;1.73;;;;;;;2.52;67.59;100057.84;10224173;28;20067;-60
2024/02/13 05:01:36;;;;;;;2.17;1.60;;;;;;;2.62;67.52;100066.22;10221918;28;20047;-60
2024/02/13 05:11:58;;;;;;;3.67;2.10;;;;;;;2.75;67.28;100068.44;10223980;28;20082;-61
2024/02/13 05:17:01;;;;;;;2.55;1.80;;;;;;;2.88;67.07;100054.34;10221912;28;20499;-60
2024/02/13 05:22:03;;;;;;;3.22;1.80;;;;;;;2.91;67.10;100054.25;10222513;28;20051;-61
2024/02/13 05:27:08;;;;;;;3.17;1.55;;;;;;;2.93;67.07;100062.81;10224393;28;20090;-61
2024/02/13 05:32:10;;;;;;;2.65;1.42;;;;;;;2.99;67.24;100059.19;10223065;28;20048;-61
2024/02/13 05:37:12;;;;;;;2.85;1.58;;;;;;;3.16;66.76;100063.91;10218312;28;20096;-60
2024/02/13 05:42:18;;;;;;;2.17;1.60;;;;;;;3.20;66.50;100070.69;10222183;28;20051;-60
2024/02/13 05:47:23;;;;;;;3.35;1.80;;;;;;;3.07;66.31;100060.69;10229155;28;20101;-61
2024/02/13 05:52:25;;;;;;;2.92;1.42;;;;;;;2.86;66.44;100063.00;10224129;28;20050;-60
2024/02/13 05:57:28;;;;;;;2.38;1.60;;;;;;;2.57;66.41;100068.91;10227802;28;20067;-61
2024/02/13 06:02:31;;;;;;;3.65;1.98;;;;;;;2.56;66.74;100076.72;10228120;28;20566;-61
2024/02/13 06:07:34;;;;;;;5.07;2.65;;;;;;;2.61;66.69;100091.19;10227711;28;20047;-61
2024/02/13 06:12:36;;;;;;;6.10;2.15;;;;;;;2.67;66.54;100088.47;10229303;28;20043;-61
2024/02/13 06:17:38;;;;;;;3.25;1.63;;;;;;;2.69;66.36;100091.84;10227957;28;20043;-61
2024/02/13 06:22:41;;;;;;;3.20;2.13;;;;;;;2.66;66.60;100091.91;10229902;28;20043;-61
2024/02/13 06:27:45;;;;;;;4.20;1.65;;;;;;;2.58;66.38;100095.59;10228852;28;20161;-60
2024/02/13 06:32:47;;;;;;;5.82;2.20;;;;;;;2.46;66.39;100099.31;10228709;28;20067;-61
2024/02/13 06:37:50;;;;;;;2.45;1.60;;;;;;;2.36;66.39;100104.75;10226906;28;20071;-60
2024/02/13 06:42:52;;;;;;;4.05;1.77;;;;;;;2.16;66.20;100111.22;10228910;28;20407;-61
2024/02/13 06:47:54;;;;;;;4.43;1.98;;;;;;;2.05;66.32;100120.91;10227495;28;20087;-61
2024/02/13 06:52:56;;;;;;;7.38;1.88;;;;;;;2.07;66.53;100123.47;10227561;28;20055;-61
2024/02/13 06:57:58;;;;;;;2.30;1.52;;;;;;;2.02;66.56;100126.16;10227348;28;21100;-61
2024/02/13 07:03:00;;;;;;;3.08;1.92;;;;;;;1.89;66.42;100140.19;10228118;28;20048;-61
2024/02/13 07:08:02;;;;;;;3.17;1.75;;;;;;;1.77;66.88;100144.75;10226376;28;20121;-60
2024/02/13 07:13:04;;;;;;;2.70;1.90;;;;;;;1.86;66.71;100145.41;10226804;28;20109;-61
2024/02/13 07:18:07;;;;;;;3.25;1.98;;;;;;;1.90;66.25;100146.19;10226756;28;20073;-60
2024/02/13 07:23:10;;;;;;;6.22;2.08;;;;;;;1.79;66.16;100148.13;10226573;28;20100;-60
2024/02/13 07:28:13;;;;;;;5.25;2.20;;;;;;;1.79;66.32;100156.72;10224388;28;20130;-62
2024/02/13 07:33:16;;;;;;;6.40;2.78;;;;;;;1.83;66.32;100165.25;10221235;28;20049;-60
2024/02/13 07:38:18;;;;;;;5.65;2.63;;;;;;;1.96;66.23;100172.72;10221875;28;20043;-61
2024/02/13 07:43:20;;;;;;;4.47;1.88;;;;;;;1.99;66.26;100172.63;10223474;28;20503;-60
2024/02/13 07:48:22;;;;;;;3.92;1.95;;;;;;;2.15;66.12;100173.16;10223974;28;20062;-61
2024/02/13 07:53:25;;;;;;;6.75;2.90;;;;;;;2.38;65.74;100181.22;10218954;28;20039;-61
2024/02/13 07:58:28;;;;;;;12.63;4.20;;;;;;;2.42;65.71;100185.44;10219904;28;21021;-61
2024/02/13 08:03:33;;;;;;;6.75;3.58;;;;;;;2.63;65.63;100187.53;10222857;28;20054;-60
2024/02/13 08:08:35;;;;;;;6.60;3.63;;;;;;;2.74;65.17;100189.88;10219168;29;21617;-60
2024/02/13 08:13:37;;;;;;;6.07;3.33;;;;;;;2.92;65.32;100189.41;10223213;28;20518;-60
2024/02/13 08:18:42;;;;;;;4.93;2.65;;;;;;;3.16;65.18;100186.22;10224090;28;20069;-60
2024/02/13 08:23:44;;;;;;;3.58;2.10;;;;;;;3.44;65.04;100184.59;10224939;28;20043;-60
2024/02/13 08:28:47;;;;;;;8.27;3.17;;;;;;;3.72;64.74;100185.53;10225339;28;20162;-60
2024/02/13 08:33:50;;;;;;;4.00;1.77;;;;;;;4.09;64.64;100179.38;10225428;28;20055;-61
2024/02/13 08:38:52;;;;;;;2.95;1.70;;;;;;;4.55;64.10;100185.69;10224758;28;20055;-61
2024/02/13 08:43:55;;;;;;;2.90;1.80;;;;;;;5.04;63.37;100187.56;10224628;28;20062;-61
2024/02/13 08:48:57;;;;;;;6.47;2.58;;;;;;;5.72;62.61;100200.72;10224187;28;20055;-61
2024/02/13 08:54:00;;;;;;;2.28;1.50;;;;;;;6.40;61.37;100200.81;10225688;28;20054;-61
2024/02/13 08:59:03;;;;;;;4.35;1.85;;;;;;;6.58;61.11;100209.63;10227389;28;20059;-62
2024/02/13 09:04:05;;;;;;;2.38;1.52;;;;;;;7.13;59.68;100214.31;10226096;28;20056;-61
2024/02/13 09:09:26;;;;;;;2.80;1.60;;;;;;;7.39;59.68;100219.28;10223133;28;20067;-61
2024/02/13 09:14:31;;;;;;;3.67;1.50;;;;;;;7.34;57.34;100228.19;10225653;28;20047;-61
2024/02/13 09:19:33;;;;;;;1.90;1.30;;;;;;;7.26;58.27;100225.91;10233641;28;20144;-61
2024/02/13 09:24:36;;;;;;;3.95;1.20;;;;;;;7.28;56.96;100229.31;10233508;28;20557;-61
2024/02/13 09:29:38;;;;;;;1.83;1.20;;;;;;;7.37;57.60;100241.91;10229069;28;20053;-61
2024/02/13 09:34:40;;;;;;;2.08;1.33;;;;;;;7.41;57.87;100245.22;10244701;28;20055;-61
2024/02/13 09:39:42;;;;;;;2.20;1.10;;;;;;;7.28;55.73;100250.13;10261220;28;20039;-61
2024/02/13 09:44:44;;;;;;;3.88;1.23;;;;;;;7.23;57.66;100252.03;10255545;28;20058;-61
2024/02/13 09:49:47;;;;;;;3.40;1.10;;;;;;;7.51;56.64;100246.56;10255679;28;20058;-61
2024/02/13 09:54:50;;;;;;;3.35;1.77;;;;;;;7.36;55.49;100242.84;10237604;28;20558;-61
2024/02/13 09:59:56;;;;;;;1.73;1.52;;;;;;;7.62;55.66;100247.78;10246182;28;20490;-61
2024/02/13 10:04:58;;;;;;;1.92;1.02;;;;;;;8.06;54.85;100242.41;10253802;28;20055;-57
2024/02/13 10:10:01;;;;;;;2.08;1.00;;;;;;;8.28;54.20;100256.19;10305826;28;20611;-55
2024/02/13 10:15:03;;;;;;;2.95;1.30;;;;;;;8.51;54.09;100259.44;10235395;28;20044;-55
2024/02/13 10:20:10;;;;;;;1.38;1.00;;;;;;;8.50;53.27;100254.31;10230904;28;20073;-56
2024/02/13 10:25:13;;;;;;;1.38;0.82;;;;;;;8.58;53.26;100254.78;10226794;28;20101;-57
2024/02/13 10:30:23;;;;;;;1.27;1.00;;;;;;;8.04;51.54;100252.88;10227168;28;20134;-56
2024/02/13 10:35:25;;;;;;;1.30;0.93;;;;;;;7.89;50.99;100262.22;10223321;28;20071;-56
2024/02/13 10:40:27;;;;;;;1.85;1.20;;;;;;;8.15;52.73;100266.31;10228059;28;20132;-55
2024/02/13 10:45:32;;;;;;;1.52;0.95;;;;;;;8.16;52.29;100256.75;10224243;28;20079;-56
2024/02/13 10:50:43;;;;;;;1.73;0.98;;;;;;;8.14;52.43;100248.97;10225689;28;20047;-55
2024/02/13 10:55:52;;;;;;;0.90;0.88;;;;;;;8.15;51.06;100245.47;10211859;28;20138;-58
2024/02/13 11:00:58;;;;;;;1.15;0.95;;;;;;;8.25;51.67;100235.47;10226688;28;20062;-56
2024/02/13 11:06:01;;;;;;;2.03;1.10;;;;;;;8.40;50.74;100238.25;10227455;28;20105;-56
2024/02/13 11:11:14;;;;;;;2.70;1.10;;;;;;;8.21;48.62;100244.34;10225508;28;20055;-55
2024/02/13 11:16:21;;;;;;;1.55;1.08;;;;;;;8.26;50.50;100232.78;10226161;28;20144;-58
2024/02/13 11:21:45;;;;;;;3.97;0.88;;;;;;;8.24;49.46;100228.59;10221037;28;20056;-54
2024/02/13 11:27:13;;;;;;;0.65;0.65;;;;;;;8.31;50.35;100227.38;10227832;28;20515;-53
2024/02/13 11:32:38;;;;;;;1.33;1.00;;;;;;;8.35;48.86;100229.78;10227588;28;20140;-56
2024/02/13 11:37:42;;;;;;;1.15;1.00;;;;;;;8.36;50.68;100226.28;10221223;28;20188;-57
2024/02/13 11:42:45;;;;;;;1.08;0.98;;;;;;;8.33;49.61;100221.19;10226082;28;20063;-55
2024/02/13 11:47:49;;;;;;;1.27;1.00;;;;;;;8.21;49.50;100226.09;10222469;28;20053;-54
2024/02/13 11:52:54;;;;;;;1.58;0.80;;;;;;;8.22;49.88;100215.59;10225262;28;20477;-53
2024/02/13 11:57:59;;;;;;;1.05;0.80;;;;;;;8.54;50.42;100216.75;10225335;28;20322;-58
2024/02/13 12:03:04;;;;;;;2.70;1.00;;;;;;;8.62;50.08;100202.44;10228227;28;20046;-57
2024/02/13 12:08:08;;;;;;;1.55;1.02;;;;;;;8.52;49.07;100213.38;10222859;28;20078;-55
2024/02/13 12:13:11;;;;;;;0.80;0.80;;;;;;;8.75;50.04;100207.91;10225034;28;20051;-57
2024/02/13 12:18:20;;;;;;;3.35;1.10;;;;;;;8.96;48.57;100201.66;10223998;28;20054;-57
2024/02/13 12:23:22;;;;;;;0.88;0.80;;;;;;;9.15;48.35;100207.66;10230677;28;20059;-54
2024/02/13 12:28:24;;;;;;;4.13;1.00;;;;;;;9.01;49.09;100204.91;10228539;28;20050;-55
2024/02/13 12:33:28;;;;;;;3.58;0.93;;;;;;;8.98;48.87;100209.41;10227925;28;20047;-53
2024/02/13 12:38:31;;;;;;;2.58;1.10;;;;;;;8.82;48.37;100207.53;10224001;28;20044;-55
2024/02/13 12:43:33;;;;;;;2.13;1.20;;;;;;;9.08;48.97;100201.03;10229566;28;20488;-54
2024/02/13 12:48:36;;;;;;;1.70;0.98;;;;;;;9.18;48.05;100194.44;10225214;28;20138;-54
2024/02/13 12:53:45;;;;;;;1.83;1.05;;;;;;;9.49;47.87;100188.53;10224029;28;20074;-55
2024/02/13 12:58:51;;;;;;;1.70;1.20;;;;;;;9.65;48.26;100177.22;10221756;28;20531;-56
2024/02/13 13:03:55;;;;;;;3.75;0.95;;;;;;;9.74;47.83;100172.47;10226757;28;20039;-56
2024/02/13 13:08:57;;;;;;;1.92;1.23;;;;;;;9.94;48.08;100180.94;10229880;28;20082;-53
2024/02/13 13:14:01;;;;;;;1.30;0.90;;;;;;;9.93;47.83;100181.84;10229730;28;20393;-56
2024/02/13 13:19:03;;;;;;;2.00;1.13;;;;;;;9.82;47.96;100189.44;10225714;28;20121;-55
2024/02/13 13:24:08;;;;;;;3.55;1.13;;;;;;;9.60;48.23;100181.00;10216959;28;20189;-56
2024/02/13 13:29:14;;;;;;;2.25;1.10;;;;;;;9.57;48.14;100182.00;10218526;28;20047;-56
2024/02/13 13:34:20;;;;;;;1.67;0.98;;;;;;;9.40;48.93;100178.56;10217401;28;20118;-56
2024/02/13 13:39:28;;;;;;;1.73;1.20;;;;;;;9.37;48.82;100190.00;10218875;28;20051;-56
2024/02/13 13:44:31;;;;;;;2.28;1.33;;;;;;;9.62;48.82;100176.53;10217034;28;20079;-55
2024/02/13 13:49:34;;;;;;;2.50;1.40;;;;;;;9.93;48.31;100175.81;10220091;28;20114;-56
2024/02/13 13:54:37;;;;;;;1.15;1.05;;;;;;;9.84;48.16;100184.13;10221056;28;20043;-57
2024/02/13 13:59:39;;;;;;;3.25;1.10;;;;;;;9.84;48.00;100191.97;10220992;28;20032;-56
2024/02/13 14:04:41;;;;;;;2.83;1.20;;;;;;;9.94;47.93;100195.78;10223733;28;20564;-56
2024/02/13 14:09:43;;;;;;;1.60;0.98;;;;;;;10.21;46.93;100191.69;10225188;28;20066;-56
2024/02/13 14:14:45;;;;;;;2.58;1.10;;;;;;;10.16;47.96;100191.09;10224129;28;20077;-54
2024/02/13 14:19:48;;;;;;;1.90;1.10;;;;;;;10.16;47.75;100193.69;10223195;28;20353;-52
2024/02/13 14:24:50;;;;;;;4.97;1.60;;;;;;;10.24;47.49;100200.22;10222352;28;20055;-54
2024/02/13 14:29:52;;;;;;;1.48;1.10;;;;;;;10.20;46.48;100190.00;10224888;28;20040;-56
2024/02/13 14:34:54;;;;;;;1.25;1.00;;;;;;;10.10;47.48;100191.41;10228791;28;20510;-55
2024/02/13 14:39:56;;;;;;;1.33;1.02;;;;;;;9.74;47.79;100196.84;10228316;28;20055;-54
2024/02/13 14:44:59;;;;;;;3.15;1.17;;;;;;;9.66;47.82;100199.00;10227251;28;20047;-56
2024/02/13 14:50:02;;;;;;;1.45;1.20;;;;;;;9.72;47.81;100196.06;10225704;28;20043;-56
2024/02/13 14:55:06;;;;;;;1.73;1.10;;;;;;;9.78;47.79;100200.97;10231072;28;20354;-58
2024/02/13 15:00:12;;;;;;;1.52;1.13;;;;;;;9.79;47.83;100197.41;10230678;28;20136;-58
2024/02/13 15:05:26;;;;;;;1.13;0.95;;;;;;;9.78;47.83;100197.50;10228832;28;20051;-57
2024/02/13 15:10:28;;;;;;;2.00;1.10;;;;;;;9.41;48.06;100195.91;10225347;28;20051;-56
2024/02/13 15:15:31;;;;;;;2.22;1.02;;;;;;;9.34;48.28;100195.38;10224556;28;20070;-56
2024/02/13 15:20:51;;;;;;;1.25;0.90;;;;;;;9.26;48.31;100192.31;10226946;29;20035;-55
2024/02/13 15:25:53;;;;;;;1.70;1.15;;;;;;;9.44;48.27;100190.53;10225419;28;20046;-57
2024/02/13 15:30:56;;;;;;;3.38;1.00;;;;;;;9.47;48.03;100199.06;10226107;28;20537;-56
2024/02/13 15:36:20;;;;;;;2.55;0.90;;;;;;;9.59;47.77;100188.00;10224076;28;20130;-57
2024/02/13 15:46:58;;;;;;;1.67;1.10;;;;;;;9.52;47.61;100188.38;10225499;28;20047;-55
2024/02/13 15:52:04;;;;;;;1.08;0.82;;;;;;;9.49;47.99;100194.59;10223976;28;20055;-58
2024/02/13 15:57:12;;;;;;;2.47;1.23;;;;;;;9.58;48.07;100182.84;10225597;28;20048;-56
2024/02/13 16:02:17;;;;;;;2.13;1.15;;;;;;;9.54;48.11;100186.53;10224258;28;20499;-57
2024/02/13 16:07:20;;;;;;;1.65;0.90;;;;;;;9.54;48.42;100189.97;10225155;28;20039;-57
2024/02/13 16:12:22;;;;;;;1.60;0.90;;;;;;;9.51;48.59;100179.72;10221717;28;20427;-55
2024/02/13 16:17:24;;;;;;;1.17;0.90;;;;;;;9.49;48.50;100180.69;10220371;28;20051;-55
2024/02/13 16:22:28;;;;;;;1.42;1.05;;;;;;;9.42;48.71;100187.16;10230603;28;20047;-54
2024/02/13 16:27:30;;;;;;;2.33;1.10;;;;;;;9.31;49.05;100177.28;10219357;28;20057;-55
2024/02/13 16:32:32;;;;;;;6.18;1.30;;;;;;;9.23;49.35;100186.41;10221980;28;20561;-54
2024/02/13 16:37:42;;;;;;;2.28;1.23;;;;;;;9.17;49.60;100198.00;10228398;28;20090;-54
2024/02/13 16:42:52;;;;;;;2.20;1.20;;;;;;;9.06;49.84;100194.22;10205803;28;20069;-56
2024/02/13 16:47:59;;;;;;;3.10;1.20;;;;;;;8.96;50.13;100199.03;10225405;28;20449;-57
2024/02/13 16:53:04;;;;;;;1.95;1.17;;;;;;;8.80;50.35;100198.94;10225614;28;20050;-56
2024/02/13 16:58:08;;;;;;;5.63;1.50;;;;;;;8.63;50.75;100187.63;10224368;28;20078;-54
2024/02/13 17:03:13;;;;;;;8.02;1.58;;;;;;;8.44;51.22;100189.44;10227244;28;20138;-55
2024/02/13 17:08:15;;;;;;;2.35;1.48;;;;;;;8.34;51.33;100203.81;10222680;28;20046;-55
2024/02/13 17:13:17;;;;;;;3.30;2.42;;;;;;;8.32;51.35;100211.69;10225785;28;20058;-56
2024/02/13 17:18:20;;;;;;;1.95;1.13;;;;;;;8.20;51.39;100201.00;10223392;28;20049;-56
2024/02/13 17:23:23;;;;;;;2.72;1.25;;;;;;;8.08;51.59;100197.13;10207271;28;20832;-53
2024/02/13 17:28:25;;;;;;;2.22;1.60;;;;;;;8.05;51.85;100199.88;10221149;28;20040;-53
2024/02/13 17:33:27;;;;;;;2.25;1.50;;;;;;;8.09;51.95;100204.03;10225555;28;20663;-56
2024/02/13 17:38:29;;;;;;;3.70;1.27;;;;;;;8.09;52.21;100197.97;10229727;28;20055;-56
2024/02/13 17:43:31;;;;;;;2.17;1.30;;;;;;;8.11;52.40;100196.19;10235098;28;20055;-54
2024/02/13 17:48:34;;;;;;;2.72;1.50;;;;;;;8.03;52.46;100197.34;10227614;28;20432;-55
2024/02/13 17:53:36;;;;;;;1.95;1.27;;;;;;;8.02;52.64;100200.84;10225967;28;20112;-55
2024/02/13 17:58:39;;;;;;;3.53;1.52;;;;;;;7.98;52.67;100204.53;10226830;28;20051;-53
2024/02/13 18:03:41;;;;;;;3.83;1.30;;;;;;;8.02;52.85;100198.25;10226391;28;20055;-56
2024/02/13 18:08:43;;;;;;;2.50;1.45;;;;;;;8.01;52.87;100212.22;10232158;28;20039;-54
2024/02/13 18:13:46;;;;;;;1.73;1.23;;;;;;;7.96;53.10;100208.94;10223910;28;20055;-55
2024/02/13 18:18:48;;;;;;;2.30;1.42;;;;;;;7.98;53.09;100212.34;10222423;28;20522;-56
2024/02/13 18:23:53;;;;;;;2.92;1.33;;;;;;;7.92;53.19;100212.59;10224269;28;20051;-52
2024/02/13 18:28:57;;;;;;;2.83;1.58;;;;;;;7.95;53.20;100203.81;10226836;28;20062;-55
2024/02/13 18:33:59;;;;;;;3.00;1.60;;;;;;;8.00;52.75;100200.09;10240543;28;20051;-52
2024/02/13 18:39:01;;;;;;;2.90;1.58;;;;;;;8.00;53.15;100197.47;10228238;28;20050;-55
2024/02/13 18:44:06;;;;;;;4.13;1.92;;;;;;;7.93;53.28;100190.88;10225087;28;20847;-56
2024/02/13 18:49:09;;;;;;;2.80;1.38;;;;;;;7.89;53.44;100184.13;10229303;28;20090;-55
2024/02/13 18:54:12;;;;;;;5.72;1.30;;;;;;;7.91;53.44;100184.88;10226625;28;20051;-55
2024/02/13 18:59:14;;;;;;;1.48;1.20;;;;;;;7.89;53.11;100183.25;10228166;28;20841;-56
2024/02/13 19:04:17;;;;;;;3.00;1.67;;;;;;;7.84;53.33;100180.00;10228255;28;20061;-55
2024/02/13 19:09:20;;;;;;;2.65;1.50;;;;;;;7.84;53.28;100187.81;10228518;28;20055;-53
2024/02/13 19:14:22;;;;;;;3.17;1.75;;;;;;;7.87;53.06;100193.75;10226570;28;20074;-56
2024/02/13 19:19:25;;;;;;;3.90;1.58;;;;;;;7.91;52.96;100189.25;10227341;28;20047;-55
2024/02/13 19:24:26;;;;;;;3.53;1.67;;;;;;;7.95;53.14;100188.19;10222871;28;21180;-53
2024/02/13 19:29:29;;;;;;;4.55;1.85;;;;;;;7.96;53.02;100192.47;10196813;28;20049;-52
2024/02/13 19:34:32;;;;;;;2.20;1.40;;;;;;;7.97;53.11;100184.63;10222081;28;20043;-51
2024/02/13 19:39:34;;;;;;;2.97;1.50;;;;;;;7.98;53.30;100188.88;10222949;28;20051;-55
2024/02/13 19:44:38;;;;;;;4.18;1.70;;;;;;;8.07;53.10;100189.38;10222439;28;20134;-54
2024/02/13 19:49:40;;;;;;;3.15;1.70;;;;;;;8.14;53.02;100207.28;10220458;28;20431;-61
2024/02/13 19:55:05;;;;;;;4.93;1.80;;;;;;;8.11;53.16;100198.78;10228560;28;20054;-60
2024/02/13 20:00:27;;;;;;;3.28;1.85;;;;;;;8.08;53.26;100206.72;10221541;28;20122;-60
2024/02/13 20:05:51;;;;;;;2.70;1.63;;;;;;;8.04;53.47;100201.63;10208546;28;20355;-60
2024/02/13 20:11:15;;;;;;;3.08;1.63;;;;;;;7.99;53.41;100197.56;10223185;28;20065;-60
2024/02/13 20:16:17;;;;;;;2.78;1.63;;;;;;;8.04;53.46;100211.19;10224569;28;20083;-60
2024/02/13 20:21:19;;;;;;;5.22;2.00;;;;;;;8.10;53.27;100204.91;10223927;28;20054;-61
2024/02/13 20:26:21;;;;;;;3.30;1.92;;;;;;;8.15;53.05;100197.72;10219601;28;20113;-61
2024/02/13 20:31:23;;;;;;;4.28;2.05;;;;;;;8.07;53.31;100195.44;10231123;28;20051;-62
2024/02/13 20:36:25;;;;;;;5.93;2.35;;;;;;;7.98;53.68;100196.69;10227011;28;20152;-61
2024/02/13 20:41:27;;;;;;;3.13;1.73;;;;;;;7.92;53.52;100188.31;10226143;28;20087;-61
2024/02/13 20:46:33;;;;;;;2.85;1.60;;;;;;;7.87;53.53;100185.09;10219739;28;20121;-61
2024/02/13 20:51:35;;;;;;;4.13;1.90;;;;;;;7.79;53.81;100197.59;10227759;28;20052;-61
2024/02/13 20:56:39;;;;;;;3.08;2.00;;;;;;;7.74;54.35;100194.34;10224917;28;20073;-61
2024/02/13 21:01:42;;;;;;;3.75;2.17;;;;;;;7.58;54.22;100186.38;10215820;28;20062;-61
2024/02/13 21:06:47;;;;;;;4.93;2.50;;;;;;;7.47;54.83;100192.97;10212104;28;20098;-61
2024/02/13 21:11:55;;;;;;;6.60;2.97;;;;;;;7.32;54.97;100193.59;10218989;28;20561;-61
2024/02/13 21:16:57;;;;;;;8.18;2.33;;;;;;;7.27;55.23;100201.59;10218921;28;20047;-61
2024/02/13 21:27:20;;;;;;;5.78;2.50;;;;;;;7.18;55.57;100189.81;10221825;28;20047;-61
2024/02/13 21:32:22;;;;;;;5.93;2.60;;;;;;;7.14;55.32;100197.81;10221584;28;20953;-61
2024/02/13 21:37:25;;;;;;;5.75;2.70;;;;;;;7.07;55.69;100194.63;10219248;28;20047;-61
2024/02/13 21:42:27;;;;;;;6.72;3.35;;;;;;;7.04;56.03;100186.13;10215734;28;20051;-61
2024/02/13 21:47:29;;;;;;;4.25;2.30;;;;;;;7.11;55.85;100193.59;10225658;28;20214;-61
2024/02/13 21:52:31;;;;;;;7.55;2.90;;;;;;;7.15;56.02;100202.09;10224393;28;21263;-60
2024/02/13 21:57:34;;;;;;;4.55;2.30;;;;;;;7.02;55.97;100187.94;10223943;28;20054;-61
2024/02/13 22:02:36;;;;;;;4.90;2.97;;;;;;;7.05;56.32;100187.78;10230389;28;20647;-61
2024/02/13 22:07:39;;;;;;;7.32;2.50;;;;;;;7.15;56.29;100179.53;10226010;28;20047;-61
2024/02/13 22:12:41;;;;;;;5.15;2.45;;;;;;;7.18;56.62;100170.78;10224130;28;20047;-61
2024/02/13 22:17:47;;;;;;;5.28;2.38;;;;;;;7.29;56.46;100168.53;10229576;28;20124;-61
2024/02/13 22:22:50;;;;;;;5.82;2.45;;;;;;;7.39;56.30;100169.84;10227718;28;21114;-61
2024/02/13 22:27:53;;;;;;;5.35;2.50;;;;;;;7.36;56.68;100179.53;10225375;28;20051;-61
2024/02/13 22:32:56;;;;;;;4.78;2.30;;;;;;;7.45;56.70;100176.56;10227105;28;20762;-61
2024/02/13 22:37:58;;;;;;;4.32;2.45;;;;;;;7.58;56.37;100170.75;10225802;28;20051;-61
2024/02/13 22:43:03;;;;;;;5.50;2.90;;;;;;;7.49;56.64;100170.31;10227340;28;20430;-61
2024/02/13 22:48:05;;;;;;;4.47;2.70;;;;;;;7.40;56.80;100176.75;10225200;28;21017;-61
2024/02/13 22:53:07;;;;;;;7.15;3.53;;;;;;;7.44;57.29;100180.06;10223326;28;20059;-61
2024/02/13 22:58:09;;;;;;;5.15;2.63;;;;;;;7.48;57.01;100174.66;10228310;28;20256;-61
2024/02/13 23:03:12;;;;;;;6.40;2.75;;;;;;;7.40;57.14;100176.75;10222708;28;20147;-61
2024/02/13 23:08:15;;;;;;;6.50;3.08;;;;;;;7.37;57.46;100176.88;10226466;28;20867;-61
2024/02/13 23:13:20;;;;;;;6.50;3.60;;;;;;;7.36;57.55;100182.16;10224111;28;20067;-61
2024/02/13 23:18:27;;;;;;;7.43;3.42;;;;;;;7.33;57.62;100180.50;10225878;28;20113;-61
2024/02/13 23:23:32;;;;;;;5.47;2.80;;;;;;;7.38;57.68;100175.13;10223554;28;20126;-61
2024/02/13 23:28:34;;;;;;;6.53;3.53;;;;;;;7.45;57.94;100166.16;10223114;28;20043;-61
2024/02/13 23:33:53;;;;;;;7.55;2.80;;;;;;;7.44;58.18;100167.06;10226918;28;20081;-61
2024/02/13 23:38:56;;;;;;;6.97;3.13;;;;;;;7.52;58.27;100167.56;10227626;28;20096;-61
2024/02/13 23:43:58;;;;;;;11.45;3.35;;;;;;;7.34;58.46;100155.34;10224812;28;20058;-61
2024/02/13 23:49:00;;;;;;;4.70;2.75;;;;;;;7.22;58.81;100159.34;10225672;28;20050;-61
2024/02/13 23:54:03;;;;;;;5.32;3.10;;;;;;;7.24;59.06;100148.84;10224264;28;20051;-61